sensor_id;sensor_type;location;lat;lon;timestamp;temperature;humidity
68189;DHT22;66299;47.514;19.218;2024-02-04T19:27:03;11.25;77.30
68189;DHT22;66299;47.514;19.218;2024-02-04T19:29:36;11.15;77.76
68189;DHT22;66299;47.514;19.218;2024-02-04T19:32:07;11.21;77.75
68189;DHT22;66299;47.514;19.218;2024-02-04T19:34:37;11.23;77.67
68189;DHT22;66299;47.514;19.218;2024-02-04T19:37:08;11.18;77.98
68189;DHT22;66299;47.514;19.218;2024-02-04T19:39:37;11.14;78.24
68189;DHT22;66299;47.514;19.218;2024-02-04T19:42:09;11.05;78.58
68189;DHT22;66299;47.514;19.218;2024-02-04T19:44:39;10.92;79.23
68189;DHT22;66299;47.514;19.218;2024-02-04T19:47:11;10.95;79.24
68189;DHT22;66299;47.514;19.218;2024-02-04T19:49:40;10.85;79.96
68189;DHT22;66299;47.514;19.218;2024-02-04T19:52:14;10.80;80.50
68189;DHT22;66299;47.514;19.218;2024-02-04T19:54:45;10.81;80.45
68189;DHT22;66299;47.514;19.218;2024-02-04T19:57:16;10.78;80.65
68189;DHT22;66299;47.514;19.218;2024-02-04T19:59:46;10.68;81.04
68189;DHT22;66299;47.514;19.218;2024-02-04T20:02:17;10.82;80.36
68189;DHT22;66299;47.514;19.218;2024-02-04T20:04:46;10.68;80.87
68189;DHT22;66299;47.514;19.218;2024-02-04T20:07:19;10.74;80.61
68189;DHT22;66299;47.514;19.218;2024-02-04T20:09:51;10.71;80.75
68189;DHT22;66299;47.514;19.218;2024-02-04T20:12:26;10.68;80.71
68189;DHT22;66299;47.514;19.218;2024-02-04T20:14:58;10.68;80.63
68189;DHT22;66299;47.514;19.218;2024-02-04T20:17:28;10.70;80.49
68189;DHT22;66299;47.514;19.218;2024-02-04T20:19:58;10.70;80.32
68189;DHT22;66299;47.514;19.218;2024-02-04T20:22:32;10.63;80.59
68189;DHT22;66299;47.514;19.218;2024-02-04T20:25:03;10.84;79.54
68189;DHT22;66299;47.514;19.218;2024-02-04T20:27:35;10.77;79.62
68189;DHT22;66299;47.514;19.218;2024-02-04T20:30:05;10.82;79.32
68189;DHT22;66299;47.514;19.218;2024-02-04T20:32:36;10.92;78.88
68189;DHT22;66299;47.514;19.218;2024-02-04T20:35:09;10.98;78.20
68189;DHT22;66299;47.514;19.218;2024-02-04T20:37:39;10.97;78.03
68189;DHT22;66299;47.514;19.218;2024-02-04T20:40:11;11.01;77.83
68189;DHT22;66299;47.514;19.218;2024-02-04T20:42:45;11.01;77.72
68189;DHT22;66299;47.514;19.218;2024-02-04T20:45:16;11.07;77.47
68189;DHT22;66299;47.514;19.218;2024-02-04T20:47:46;11.09;77.20
68189;DHT22;66299;47.514;19.218;2024-02-04T20:50:17;11.07;77.07
68189;DHT22;66299;47.514;19.218;2024-02-04T20:52:46;11.01;77.29
68189;DHT22;66299;47.514;19.218;2024-02-04T20:55:18;11.00;77.32
68189;DHT22;66299;47.514;19.218;2024-02-04T20:57:50;10.95;77.35
68189;DHT22;66299;47.514;19.218;2024-02-04T21:00:22;11.01;77.19
68189;DHT22;66299;47.514;19.218;2024-02-04T21:02:52;11.18;76.73
68189;DHT22;66299;47.514;19.218;2024-02-04T21:05:22;11.11;76.42
68189;DHT22;66299;47.514;19.218;2024-02-04T21:07:53;11.02;76.94
68189;DHT22;66299;47.514;19.218;2024-02-04T21:10:25;11.05;76.62
68189;DHT22;66299;47.514;19.218;2024-02-04T21:12:57;11.21;76.30
68189;DHT22;66299;47.514;19.218;2024-02-04T21:15:33;11.12;76.39
68189;DHT22;66299;47.514;19.218;2024-02-04T21:18:06;11.15;76.56
68189;DHT22;66299;47.514;19.218;2024-02-04T21:20:35;11.16;76.71
68189;DHT22;66299;47.514;19.218;2024-02-04T21:23:06;11.26;76.39
68189;DHT22;66299;47.514;19.218;2024-02-04T21:25:35;11.08;77.16
68189;DHT22;66299;47.514;19.218;2024-02-04T21:28:08;11.07;77.26
68189;DHT22;66299;47.514;19.218;2024-02-04T21:30:40;11.11;77.37
68189;DHT22;66299;47.514;19.218;2024-02-04T21:33:10;10.97;77.94
68189;DHT22;66299;47.514;19.218;2024-02-04T21:35:43;10.94;78.36
68189;DHT22;66299;47.514;19.218;2024-02-04T21:38:14;10.92;78.63
68189;DHT22;66299;47.514;19.218;2024-02-04T21:40:44;10.92;79.20
68189;DHT22;66299;47.514;19.218;2024-02-04T21:43:19;10.84;79.66
68189;DHT22;66299;47.514;19.218;2024-02-04T21:45:53;10.88;79.94
68189;DHT22;66299;47.514;19.218;2024-02-04T21:48:23;10.73;80.40
68189;DHT22;66299;47.514;19.218;2024-02-04T21:50:52;10.70;80.52
68189;DHT22;66299;47.514;19.218;2024-02-04T21:53:25;10.65;80.89
68189;DHT22;66299;47.514;19.218;2024-02-04T21:55:54;10.63;80.85
68189;DHT22;66299;47.514;19.218;2024-02-04T21:58:29;10.71;80.68
68189;DHT22;66299;47.514;19.218;2024-02-04T22:01:00;10.57;81.21
68189;DHT22;66299;47.514;19.218;2024-02-04T22:03:37;10.70;80.86
68189;DHT22;66299;47.514;19.218;2024-02-04T22:06:06;10.56;81.49
68189;DHT22;66299;47.514;19.218;2024-02-04T22:08:39;10.56;81.66
68189;DHT22;66299;47.514;19.218;2024-02-04T22:11:09;10.61;81.67
68189;DHT22;66299;47.514;19.218;2024-02-04T22:13:39;10.64;81.70
68189;DHT22;66299;47.514;19.218;2024-02-04T22:16:10;10.71;81.67
68189;DHT22;66299;47.514;19.218;2024-02-04T22:18:39;10.71;81.81
68189;DHT22;66299;47.514;19.218;2024-02-04T22:21:07;10.65;82.18
68189;DHT22;66299;47.514;19.218;2024-02-04T22:23:40;10.67;82.00
68189;DHT22;66299;47.514;19.218;2024-02-04T22:26:13;10.68;81.93
68189;DHT22;66299;47.514;19.218;2024-02-04T22:28:47;10.73;81.48
68189;DHT22;66299;47.514;19.218;2024-02-04T22:31:20;10.68;81.47
68189;DHT22;66299;47.514;19.218;2024-02-04T22:33:49;10.61;81.68
68189;DHT22;66299;47.514;19.218;2024-02-04T22:36:18;10.70;81.03
68189;DHT22;66299;47.514;19.218;2024-02-04T22:38:49;10.61;81.14
68189;DHT22;66299;47.514;19.218;2024-02-04T22:41:19;10.77;80.02
68189;DHT22;66299;47.514;19.218;2024-02-04T22:43:54;10.80;79.90
68189;DHT22;66299;47.514;19.218;2024-02-04T22:46:26;10.70;79.85
68189;DHT22;66299;47.514;19.218;2024-02-04T22:48:57;10.80;79.12
68189;DHT22;66299;47.514;19.218;2024-02-04T22:51:27;10.90;78.56
68189;DHT22;66299;47.514;19.218;2024-02-04T22:53:57;10.82;78.84
68189;DHT22;66299;47.514;19.218;2024-02-04T22:56:28;10.84;78.76
68189;DHT22;66299;47.514;19.218;2024-02-04T22:59:01;10.85;78.40
68189;DHT22;66299;47.514;19.218;2024-02-04T23:01:30;11.00;78.20
68189;DHT22;66299;47.514;19.218;2024-02-04T23:03:58;10.90;78.44
68189;DHT22;66299;47.514;19.218;2024-02-04T23:06:34;10.80;78.79
68189;DHT22;66299;47.514;19.218;2024-02-04T23:09:06;10.74;79.12
68189;DHT22;66299;47.514;19.218;2024-02-04T23:11:41;10.75;79.06
68189;DHT22;66299;47.514;19.218;2024-02-04T23:14:14;10.84;78.85
68189;DHT22;66299;47.514;19.218;2024-02-04T23:16:47;10.77;79.00
68189;DHT22;66299;47.514;19.218;2024-02-04T23:19:16;10.91;78.71
68189;DHT22;66299;47.514;19.218;2024-02-04T23:21:51;10.78;79.31
68189;DHT22;66299;47.514;19.218;2024-02-04T23:24:20;10.75;79.53
68189;DHT22;66299;47.514;19.218;2024-02-04T23:26:51;10.68;79.90
68189;DHT22;66299;47.514;19.218;2024-02-04T23:29:23;10.63;80.31
68189;DHT22;66299;47.514;19.218;2024-02-04T23:31:54;10.70;80.31
68189;DHT22;66299;47.514;19.218;2024-02-04T23:34:25;10.78;80.28
68189;DHT22;66299;47.514;19.218;2024-02-04T23:36:55;10.77;80.04
68189;DHT22;66299;47.514;19.218;2024-02-04T23:39:26;10.82;79.95
68189;DHT22;66299;47.514;19.218;2024-02-04T23:41:54;10.68;80.37
68189;DHT22;66299;47.514;19.218;2024-02-04T23:44:27;10.60;80.94
68189;DHT22;66299;47.514;19.218;2024-02-04T23:46:57;10.61;80.79
68189;DHT22;66299;47.514;19.218;2024-02-04T23:49:28;10.53;81.25
68189;DHT22;66299;47.514;19.218;2024-02-04T23:51:58;10.63;81.29
68189;DHT22;66299;47.514;19.218;2024-02-04T23:54:28;10.56;81.37
68189;DHT22;66299;47.514;19.218;2024-02-04T23:56:57;10.40;82.18
68189;DHT22;66299;47.514;19.218;2024-02-04T23:59:27;10.53;81.88
